createdAt,value
2018-12-20T00:01:03.627Z,5.20
2018-12-20T00:03:32.121Z,5.10
2018-12-20T00:06:00.687Z,5.12
2018-12-20T00:08:29.240Z,5.20
2018-12-20T00:10:57.573Z,5.01
2018-12-20T00:13:26.124Z,4.88
2018-12-20T00:15:54.585Z,4.74
2018-12-20T00:18:23.116Z,4.65
2018-12-20T00:20:51.497Z,4.60
2018-12-20T00:23:20.522Z,4.75
2018-12-20T00:25:49.086Z,4.57
2018-12-20T00:28:17.529Z,4.54
2018-12-20T00:30:46.056Z,4.51
2018-12-20T00:33:14.428Z,4.54
2018-12-20T00:35:42.951Z,4.59
2018-12-20T00:38:11.580Z,4.59
2018-12-20T00:40:40.453Z,4.50
2018-12-20T00:43:09.073Z,4.57
2018-12-20T00:45:38.498Z,4.58
2018-12-20T00:48:06.889Z,4.72
2018-12-20T00:50:35.159Z,4.73
2018-12-20T00:53:03.768Z,4.75
2018-12-20T00:55:32.331Z,4.78
2018-12-20T00:58:00.845Z,4.83
2018-12-20T01:00:29.217Z,4.86
2018-12-20T01:02:58.348Z,4.88
2018-12-20T01:05:26.820Z,4.79
2018-12-20T01:07:55.948Z,4.89
2018-12-20T01:10:24.746Z,5.01
2018-12-20T01:12:53.275Z,4.98
2018-12-20T01:15:21.923Z,5.11
2018-12-20T01:17:51.117Z,5.14
2018-12-20T01:20:19.601Z,5.13
2018-12-20T01:22:47.955Z,5.20
2018-12-20T01:25:16.308Z,5.13
2018-12-20T01:27:44.643Z,5.23
2018-12-20T01:30:12.973Z,5.10
2018-12-20T01:32:41.365Z,5.18
2018-12-20T01:35:09.853Z,5.13
2018-12-20T01:37:38.213Z,5.18
2018-12-20T01:40:06.726Z,5.29
2018-12-20T01:42:35.176Z,5.26
2018-12-20T01:45:03.535Z,5.28
2018-12-20T01:47:31.814Z,5.25
2018-12-20T01:50:00.175Z,5.17
2018-12-20T01:52:28.437Z,5.13
2018-12-20T01:54:56.708Z,5.08
2018-12-20T01:57:25.093Z,5.00
2018-12-20T01:59:53.661Z,4.95
2018-12-20T02:02:22.250Z,4.92
2018-12-20T02:04:50.973Z,4.93
2018-12-20T02:07:19.515Z,4.85
2018-12-20T02:09:48.812Z,4.88
2018-12-20T02:12:17.330Z,4.93
2018-12-20T02:14:45.959Z,5.08
2018-12-20T02:17:14.329Z,4.99
2018-12-20T02:19:42.798Z,5.00
2018-12-20T02:22:11.430Z,5.01
2018-12-20T02:24:40.346Z,5.02
2018-12-20T02:27:08.727Z,4.99
2018-12-20T02:29:37.349Z,5.06
2018-12-20T02:32:05.711Z,5.02
2018-12-20T02:34:33.982Z,5.07
2018-12-20T02:37:02.747Z,5.09
2018-12-20T02:39:31.389Z,5.08
2018-12-20T02:42:00.293Z,5.13
2018-12-20T02:44:28.966Z,5.15
2018-12-20T02:46:57.575Z,5.20
2018-12-20T02:49:25.832Z,5.29
2018-12-20T02:51:54.215Z,5.27
2018-12-20T02:54:22.761Z,5.38
2018-12-20T02:56:51.104Z,5.35
2018-12-20T02:59:19.436Z,5.39
2018-12-20T03:01:47.916Z,5.36
2018-12-20T03:04:16.241Z,5.32
2018-12-20T03:06:44.729Z,5.29
2018-12-20T03:09:13.433Z,5.30
2018-12-20T03:11:41.937Z,5.25
2018-12-20T03:14:10.439Z,5.25
2018-12-20T03:16:39.101Z,5.31
2018-12-20T03:19:07.915Z,5.32
2018-12-20T03:21:36.465Z,5.34
2018-12-20T03:24:04.798Z,5.37
2018-12-20T03:26:33.500Z,5.36
2018-12-20T03:29:01.851Z,5.33
2018-12-20T03:31:30.491Z,5.41
2018-12-20T03:33:59.565Z,5.38
2018-12-20T03:36:27.917Z,5.39
2018-12-20T03:38:56.263Z,5.39
2018-12-20T03:41:24.577Z,5.41
2018-12-20T03:43:53.459Z,5.41
2018-12-20T03:46:22.173Z,5.41
2018-12-20T03:48:50.554Z,5.40
2018-12-20T03:51:18.839Z,5.35
2018-12-20T03:53:47.383Z,5.42
2018-12-20T03:56:15.693Z,5.42
2018-12-20T03:58:44.063Z,5.41
2018-12-20T04:01:12.323Z,5.55
2018-12-20T04:03:40.680Z,5.54
2018-12-20T04:06:09.182Z,5.46
2018-12-20T04:08:37.985Z,5.45
2018-12-20T04:11:06.491Z,5.42
2018-12-20T04:13:35.362Z,5.40
2018-12-20T04:16:04.147Z,5.36
2018-12-20T04:18:32.599Z,5.34
2018-12-20T04:21:01.006Z,5.35
2018-12-20T04:23:29.365Z,5.37
2018-12-20T04:25:57.695Z,5.45
2018-12-20T04:28:26.577Z,5.46
2018-12-20T04:30:55.130Z,5.38
2018-12-20T04:33:23.857Z,5.51
2018-12-20T04:35:52.851Z,5.45
2018-12-20T04:38:21.537Z,5.38
2018-12-20T04:40:50.836Z,5.36
2018-12-20T04:43:19.329Z,5.45
2018-12-20T04:45:47.602Z,5.37
2018-12-20T04:48:16.824Z,5.36
2018-12-20T04:50:45.133Z,5.38
2018-12-20T04:53:14.203Z,5.39
2018-12-20T04:55:42.491Z,5.38
2018-12-20T04:58:10.781Z,5.40
2018-12-20T05:00:40.589Z,5.40
2018-12-20T05:03:09.140Z,5.42
2018-12-20T05:05:37.498Z,5.41
2018-12-20T05:08:06.170Z,5.44
2018-12-20T05:10:34.450Z,5.43
2018-12-20T05:13:03.396Z,5.41
2018-12-20T05:15:32.133Z,5.40
2018-12-20T05:18:00.778Z,5.40
2018-12-20T05:20:29.740Z,5.37
2018-12-20T05:22:58.021Z,5.36
2018-12-20T05:25:26.643Z,5.36
2018-12-20T05:27:55.201Z,5.32
2018-12-20T05:30:24.791Z,5.35
2018-12-20T05:32:53.093Z,5.29
2018-12-20T05:35:21.438Z,5.30
2018-12-20T05:37:49.905Z,5.27
2018-12-20T05:40:18.387Z,5.25
2018-12-20T05:42:46.759Z,5.30
2018-12-20T05:45:15.214Z,5.27
2018-12-20T05:47:43.740Z,5.21
2018-12-20T05:50:12.433Z,5.20
2018-12-20T05:52:40.729Z,5.15
2018-12-20T05:55:09.617Z,5.17
2018-12-20T05:57:38.381Z,5.11
2018-12-20T06:00:08.072Z,5.13
2018-12-20T06:02:36.536Z,5.07
2018-12-20T06:05:05.545Z,5.05
2018-12-20T06:07:34.138Z,5.00
2018-12-20T06:10:02.445Z,4.98
2018-12-20T06:12:30.877Z,4.91
2018-12-20T06:14:59.778Z,4.89
2018-12-20T06:17:28.506Z,4.85
2018-12-20T06:19:57.281Z,4.77
2018-12-20T06:22:25.821Z,4.76
2018-12-20T06:24:54.190Z,4.71
2018-12-20T06:27:22.745Z,4.67
2018-12-20T06:29:51.180Z,4.59
2018-12-20T06:32:19.709Z,4.60
2018-12-20T06:34:48.182Z,4.62
2018-12-20T06:37:16.474Z,4.68
2018-12-20T06:39:45.113Z,4.77
2018-12-20T06:42:13.618Z,4.90
2018-12-20T06:44:42.094Z,4.91
2018-12-20T06:47:10.589Z,4.95
2018-12-20T06:49:39.053Z,4.89
2018-12-20T06:52:07.341Z,4.85
2018-12-20T06:54:35.635Z,4.85
2018-12-20T06:57:04.018Z,4.85
2018-12-20T06:59:32.651Z,4.89
2018-12-20T07:02:00.989Z,4.87
2018-12-20T07:04:29.423Z,4.95
2018-12-20T07:06:57.924Z,4.93
2018-12-20T07:09:26.406Z,4.94
2018-12-20T07:11:54.885Z,4.98
2018-12-20T07:14:23.386Z,4.92
2018-12-20T07:16:52.861Z,4.89
2018-12-20T07:19:21.353Z,4.94
2018-12-20T07:21:49.821Z,4.96
2018-12-20T07:24:18.325Z,4.98
2018-12-20T07:26:46.588Z,4.96
2018-12-20T07:29:15.294Z,4.94
2018-12-20T07:31:43.874Z,4.95
2018-12-20T07:34:12.252Z,5.02
2018-12-20T07:36:40.735Z,5.00
2018-12-20T07:39:09.656Z,5.09
2018-12-20T07:41:38.266Z,5.04
2018-12-20T07:44:06.573Z,5.07
2018-12-20T07:46:37.912Z,5.02
2018-12-20T07:49:05.601Z,5.03
2018-12-20T07:51:34.161Z,5.08
2018-12-20T07:54:02.670Z,5.05
2018-12-20T07:56:30.961Z,5.11
2018-12-20T07:58:59.260Z,5.08
2018-12-20T08:01:27.588Z,5.08
2018-12-20T08:03:55.989Z,5.05
2018-12-20T08:06:24.277Z,5.06
2018-12-20T08:08:52.709Z,5.09
2018-12-20T08:11:21.458Z,5.13
2018-12-20T08:13:49.754Z,5.15
2018-12-20T08:16:18.349Z,5.20
2018-12-20T08:18:46.638Z,5.15
2018-12-20T08:21:15.378Z,5.10
2018-12-20T08:23:43.951Z,5.08
2018-12-20T08:26:12.214Z,5.14
2018-12-20T08:28:40.497Z,5.07
2018-12-20T08:31:08.784Z,5.07
2018-12-20T08:33:37.377Z,5.07
2018-12-20T08:36:05.652Z,5.14
2018-12-20T08:38:34.309Z,5.21
2018-12-20T08:41:02.808Z,5.09
2018-12-20T08:43:31.262Z,5.11
2018-12-20T08:46:00.285Z,5.04
2018-12-20T08:48:28.564Z,5.07
2018-12-20T08:50:57.236Z,5.09
2018-12-20T08:53:25.700Z,5.13
2018-12-20T08:55:53.982Z,5.17
2018-12-20T08:58:22.245Z,5.22
2018-12-20T09:00:50.521Z,5.22
2018-12-20T09:03:19.125Z,5.31
2018-12-20T09:05:47.609Z,5.38
2018-12-20T09:08:15.876Z,5.30
2018-12-20T09:10:44.585Z,5.28
2018-12-20T09:13:16.265Z,5.29
2018-12-20T09:15:44.557Z,5.30
2018-12-20T09:18:13.077Z,5.31
2018-12-20T09:20:41.581Z,5.32
2018-12-20T09:23:10.061Z,5.36
2018-12-20T09:25:38.553Z,5.33
2018-12-20T09:28:07.538Z,5.38
2018-12-20T09:30:36.029Z,5.36
2018-12-20T09:33:04.349Z,5.37
2018-12-20T09:35:32.641Z,5.38
2018-12-20T09:38:01.158Z,5.37
2018-12-20T09:40:29.913Z,5.33
2018-12-20T09:42:58.189Z,5.35
2018-12-20T09:45:26.806Z,5.38
2018-12-20T09:47:59.234Z,5.35
2018-12-20T09:50:27.541Z,5.38
2018-12-20T09:52:55.909Z,5.46
2018-12-20T09:55:24.432Z,5.44
2018-12-20T09:57:52.878Z,5.49
2018-12-20T10:00:21.361Z,5.43
2018-12-20T10:02:49.870Z,5.42
2018-12-20T10:05:18.453Z,5.40
2018-12-20T10:07:46.741Z,5.45
2018-12-20T10:10:15.413Z,5.40
2018-12-20T10:12:44.174Z,5.36
2018-12-20T10:15:12.549Z,5.35
2018-12-20T10:17:41.281Z,5.32
2018-12-20T10:20:12.189Z,5.29
2018-12-20T10:22:40.794Z,5.51
2018-12-20T10:25:09.081Z,5.40
2018-12-20T10:27:37.757Z,5.56
2018-12-20T10:30:07.150Z,5.51
2018-12-20T10:32:35.741Z,5.63
2018-12-20T10:35:04.207Z,5.51
2018-12-20T10:37:33.213Z,5.48
2018-12-20T10:40:01.485Z,5.56
2018-12-20T10:42:29.785Z,5.71
2018-12-20T10:44:59.054Z,5.37
2018-12-20T10:47:29.318Z,5.40
2018-12-20T10:49:58.177Z,5.49
2018-12-20T10:52:26.666Z,5.63
2018-12-20T10:54:55.138Z,5.49
2018-12-20T10:57:23.430Z,5.57
2018-12-20T10:59:52.101Z,5.60
2018-12-20T11:02:25.694Z,5.59
2018-12-20T11:04:59.306Z,5.57
2018-12-20T11:07:33.050Z,5.58
2018-12-20T11:10:06.689Z,5.65
2018-12-20T11:12:40.350Z,5.65
2018-12-20T11:15:09.134Z,5.83
2018-12-20T11:17:37.813Z,5.61
2018-12-20T11:20:07.195Z,5.79
2018-12-20T11:22:35.497Z,5.99
2018-12-20T11:25:04.685Z,5.89
2018-12-20T11:27:33.185Z,6.02
2018-12-20T11:30:01.522Z,6.09
2018-12-20T11:32:30.022Z,6.20
2018-12-20T11:34:58.496Z,6.05
2018-12-20T11:37:26.789Z,5.99
2018-12-20T11:39:59.493Z,6.00
2018-12-20T11:42:25.993Z,6.04
2018-12-20T11:44:54.516Z,5.94
2018-12-20T11:47:29.625Z,5.97
2018-12-20T11:49:57.909Z,6.11
2018-12-20T11:52:26.288Z,6.18
2018-12-20T11:54:54.683Z,5.88
2018-12-20T11:57:23.014Z,5.99
2018-12-20T11:59:51.312Z,6.30
2018-12-20T12:02:24.386Z,6.39
2018-12-20T12:04:50.315Z,6.90
2018-12-20T12:07:18.993Z,6.74
2018-12-20T12:09:47.288Z,6.46
2018-12-20T12:12:15.949Z,6.26
2018-12-20T12:14:44.452Z,6.29
2018-12-20T12:17:12.717Z,6.34
2018-12-20T12:19:41.449Z,6.60
2018-12-20T12:22:09.907Z,6.74
2018-12-20T12:24:38.193Z,6.90
2018-12-20T12:27:06.585Z,6.87
2018-12-20T12:29:34.929Z,6.65
2018-12-20T12:32:03.414Z,6.38
2018-12-20T12:34:31.818Z,6.41
2018-12-20T12:37:00.280Z,6.47
2018-12-20T12:39:28.797Z,6.13
2018-12-20T12:41:57.108Z,6.22
2018-12-20T12:44:25.432Z,6.29
2018-12-20T12:46:54.185Z,6.09
2018-12-20T12:49:24.099Z,5.86
2018-12-20T12:51:53.558Z,5.71
2018-12-20T12:54:22.331Z,5.72
2018-12-20T12:56:50.646Z,5.60
2018-12-20T12:59:18.989Z,5.60
2018-12-20T13:01:47.349Z,5.55
2018-12-20T13:04:15.692Z,5.48
2018-12-20T13:06:43.996Z,5.48
2018-12-20T13:09:12.337Z,5.52
2018-12-20T13:11:41.239Z,5.50
2018-12-20T13:14:09.590Z,5.53
2018-12-20T13:16:37.918Z,5.77
2018-12-20T13:19:06.253Z,5.74
2018-12-20T13:21:34.581Z,5.70
2018-12-20T13:24:03.055Z,5.77
2018-12-20T13:26:31.490Z,5.76
2018-12-20T13:29:00.473Z,5.69
2018-12-20T13:31:28.953Z,5.73
2018-12-20T13:33:57.249Z,5.66
2018-12-20T13:36:25.713Z,5.68
2018-12-20T13:38:54.025Z,5.65
2018-12-20T13:41:22.346Z,5.68
2018-12-20T13:43:51.449Z,5.69
2018-12-20T13:46:19.773Z,5.63
2018-12-20T13:48:48.187Z,5.79
2018-12-20T13:51:16.512Z,5.74
2018-12-20T13:53:44.836Z,5.76
2018-12-20T13:56:13.169Z,5.75
2018-12-20T13:58:41.489Z,5.86
2018-12-20T14:01:09.954Z,5.75
2018-12-20T14:03:38.676Z,5.79
2018-12-20T14:06:07.305Z,5.75
2018-12-20T14:08:35.637Z,5.77
2018-12-20T14:11:04.152Z,5.80
2018-12-20T14:13:32.473Z,5.77
2018-12-20T14:16:01.118Z,5.74
2018-12-20T14:18:31.282Z,5.69
2018-12-20T14:21:00.165Z,5.71
2018-12-20T14:23:28.465Z,5.85
2018-12-20T14:25:56.809Z,6.03
2018-12-20T14:28:25.098Z,6.01
2018-12-20T14:30:53.415Z,5.97
2018-12-20T14:33:21.739Z,5.81
2018-12-20T14:35:50.069Z,5.84
2018-12-20T14:38:18.500Z,5.71
2018-12-20T14:40:46.897Z,5.68
2018-12-20T14:43:15.271Z,5.74
2018-12-20T14:45:43.603Z,5.75
2018-12-20T14:48:16.085Z,5.65
2018-12-20T14:50:44.394Z,5.59
2018-12-20T14:53:12.744Z,5.67
2018-12-20T14:55:41.069Z,5.63
2018-12-20T14:58:09.406Z,5.58
2018-12-20T15:00:37.704Z,5.59
2018-12-20T15:03:06.038Z,5.56
2018-12-20T15:05:35.406Z,5.55
2018-12-20T15:08:03.806Z,5.57
2018-12-20T15:10:32.367Z,5.49
2018-12-20T15:13:00.681Z,5.48
2018-12-20T15:15:29.273Z,5.51
2018-12-20T15:17:57.741Z,5.50
2018-12-20T15:20:26.057Z,5.50
2018-12-20T15:22:54.441Z,5.48
2018-12-20T15:25:22.763Z,5.41
2018-12-20T15:27:51.167Z,5.40
2018-12-20T15:30:19.629Z,5.39
2018-12-20T15:32:48.141Z,5.35
2018-12-20T15:35:16.602Z,5.30
2018-12-20T15:37:45.614Z,5.33
2018-12-20T15:40:13.941Z,5.27
2018-12-20T15:42:42.285Z,5.16
2018-12-20T15:45:10.617Z,5.08
2018-12-20T15:47:39.148Z,5.07
2018-12-20T15:50:09.690Z,4.97
2018-12-20T15:52:38.069Z,5.01
2018-12-20T15:55:07.083Z,4.95
2018-12-20T15:57:35.425Z,4.98
2018-12-20T16:00:03.902Z,5.03
2018-12-20T16:02:32.230Z,4.91
2018-12-20T16:05:00.542Z,4.89
2018-12-20T16:07:29.589Z,4.89
2018-12-20T16:09:57.901Z,4.90
2018-12-20T16:12:26.949Z,4.91
2018-12-20T16:14:55.386Z,4.95
2018-12-20T16:17:23.694Z,5.06
2018-12-20T16:19:52.020Z,5.08
2018-12-20T16:22:20.386Z,5.12
2018-12-20T16:24:48.734Z,5.11
2018-12-20T16:27:17.289Z,5.14
2018-12-20T16:29:45.781Z,5.17
2018-12-20T16:32:15.029Z,5.14
2018-12-20T16:34:43.773Z,5.19
2018-12-20T16:37:12.314Z,5.23
2018-12-20T16:39:42.438Z,5.23
2018-12-20T16:42:11.250Z,5.24
2018-12-20T16:44:40.766Z,5.20
2018-12-20T16:47:09.353Z,5.21
2018-12-20T16:49:37.734Z,5.16
2018-12-20T16:52:06.709Z,5.21
2018-12-20T16:54:35.314Z,5.23
2018-12-20T16:57:04.690Z,5.30
2018-12-20T16:59:33.042Z,5.29
2018-12-20T17:02:01.649Z,5.36
2018-12-20T17:04:30.165Z,5.40
2018-12-20T17:06:58.489Z,5.37
2018-12-20T17:09:27.131Z,5.41
2018-12-20T17:11:56.214Z,5.46
2018-12-20T17:14:24.615Z,5.38
2018-12-20T17:16:54.078Z,5.39
2018-12-20T17:19:22.594Z,5.40
2018-12-20T17:21:51.046Z,5.41
2018-12-20T17:24:19.373Z,5.40
2018-12-20T17:26:48.009Z,5.49
2018-12-20T17:29:16.360Z,5.43
2018-12-20T17:31:44.802Z,5.39
2018-12-20T17:34:13.113Z,5.40
2018-12-20T17:36:41.437Z,5.45
2018-12-20T17:39:09.809Z,5.46
2018-12-20T17:41:38.155Z,5.57
2018-12-20T17:44:06.605Z,5.48
2018-12-20T17:46:35.378Z,5.51
2018-12-20T17:49:03.949Z,5.48
2018-12-20T17:51:32.341Z,5.44
2018-12-20T17:54:00.675Z,5.44
2018-12-20T17:56:29.293Z,5.56
2018-12-20T17:58:58.237Z,5.49
2018-12-20T18:01:26.569Z,5.52
2018-12-20T18:03:55.250Z,5.50
2018-12-20T18:06:23.593Z,5.48
2018-12-20T18:08:52.209Z,5.47
2018-12-20T18:11:20.545Z,5.46
2018-12-20T18:13:48.873Z,5.48
2018-12-20T18:16:17.210Z,5.62
2018-12-20T18:18:45.621Z,5.58
2018-12-20T18:21:14.141Z,5.57
2018-12-20T18:23:42.453Z,5.57
2018-12-20T18:26:10.793Z,5.61
2018-12-20T18:28:39.549Z,5.60
2018-12-20T18:31:07.886Z,5.58
2018-12-20T18:33:36.246Z,5.60
2018-12-20T18:36:05.032Z,5.65
2018-12-20T18:38:33.477Z,5.70
2018-12-20T18:41:01.824Z,5.61
2018-12-20T18:43:30.437Z,5.64
2018-12-20T18:45:58.801Z,5.66
2018-12-20T18:48:27.405Z,5.67
2018-12-20T18:50:55.895Z,5.68
2018-12-20T18:53:24.204Z,5.70
2018-12-20T18:55:52.834Z,5.72
2018-12-20T18:58:21.348Z,5.73
2018-12-20T19:00:49.816Z,5.78
2018-12-20T19:03:18.685Z,5.68
2018-12-20T19:05:47.291Z,5.72
2018-12-20T19:08:15.789Z,5.71
2018-12-20T19:10:45.001Z,5.62
2018-12-20T19:13:13.341Z,5.57
2018-12-20T19:15:41.745Z,5.60
2018-12-20T19:18:10.265Z,5.60
2018-12-20T19:20:38.697Z,5.65
2018-12-20T19:23:07.041Z,5.65
2018-12-20T19:25:35.774Z,5.78
2018-12-20T19:28:04.119Z,5.75
2018-12-20T19:30:33.125Z,5.72
2018-12-20T19:33:01.456Z,5.67
2018-12-20T19:35:29.782Z,5.61
2018-12-20T19:37:58.157Z,5.68
2018-12-20T19:40:26.540Z,5.68
2018-12-20T19:42:55.693Z,5.63
2018-12-20T19:45:24.017Z,5.61
2018-12-20T19:47:59.195Z,5.65
2018-12-20T19:50:27.633Z,5.66
2018-12-20T19:52:57.177Z,5.70
2018-12-20T19:55:25.497Z,5.68
2018-12-20T19:57:54.140Z,5.71
2018-12-20T20:00:23.418Z,5.71
2018-12-20T20:02:51.863Z,5.67
2018-12-20T20:05:20.253Z,5.70
2018-12-20T20:07:48.587Z,5.84
2018-12-20T20:10:16.892Z,5.76
2018-12-20T20:12:45.222Z,5.79
2018-12-20T20:15:16.822Z,5.84
2018-12-20T20:17:44.153Z,5.82
2018-12-20T20:20:14.283Z,5.85
2018-12-20T20:22:42.858Z,5.86
2018-12-20T20:25:11.185Z,5.88
2018-12-20T20:27:40.024Z,5.89
2018-12-20T20:30:13.516Z,5.92
2018-12-20T20:32:42.672Z,5.97
2018-12-20T20:35:11.197Z,5.97
2018-12-20T20:37:39.602Z,5.90
2018-12-20T20:40:10.625Z,5.92
2018-12-20T20:42:38.965Z,5.88
2018-12-20T20:45:07.453Z,5.93
2018-12-20T20:47:36.126Z,5.93
2018-12-20T20:50:05.677Z,5.92
2018-12-20T20:52:33.989Z,5.85
2018-12-20T20:55:02.325Z,5.92
2018-12-20T20:57:30.690Z,5.90
2018-12-20T20:59:59.245Z,5.92
2018-12-20T21:02:27.537Z,5.99
2018-12-20T21:04:56.121Z,5.95
2018-12-20T21:07:24.901Z,5.94
2018-12-20T21:09:53.245Z,5.90
2018-12-20T21:12:22.988Z,5.90
2018-12-20T21:14:52.594Z,5.88
2018-12-20T21:17:21.218Z,5.94
2018-12-20T21:19:50.391Z,5.92
2018-12-20T21:22:18.895Z,6.03
2018-12-20T21:24:47.259Z,5.98
2018-12-20T21:27:15.598Z,5.94
2018-12-20T21:29:43.929Z,5.97
2018-12-20T21:32:12.263Z,5.98
2018-12-20T21:34:40.802Z,5.93
2018-12-20T21:37:09.125Z,6.05
2018-12-20T21:39:37.773Z,6.01
2018-12-20T21:42:06.086Z,5.93
2018-12-20T21:44:34.432Z,5.97
2018-12-20T21:47:03.186Z,5.93
2018-12-20T21:49:31.546Z,5.94
2018-12-20T21:52:01.601Z,5.89
2018-12-20T21:54:30.698Z,5.93
2018-12-20T21:56:59.161Z,5.92
2018-12-20T21:59:27.501Z,5.96
2018-12-20T22:01:56.154Z,5.91
2018-12-20T22:04:25.146Z,6.02
2018-12-20T22:06:53.445Z,6.01
2018-12-20T22:09:21.773Z,6.03
2018-12-20T22:11:50.074Z,6.05
2018-12-20T22:14:18.525Z,5.97
2018-12-20T22:16:46.833Z,6.04
2018-12-20T22:19:15.509Z,6.04
2018-12-20T22:21:43.886Z,6.06
2018-12-20T22:24:12.194Z,6.00
2018-12-20T22:26:40.981Z,5.97
2018-12-20T22:29:09.315Z,5.98
2018-12-20T22:31:37.917Z,6.02
2018-12-20T22:34:06.384Z,6.05
2018-12-20T22:36:34.723Z,5.97
2018-12-20T22:39:03.996Z,5.94
2018-12-20T22:41:32.337Z,6.00
2018-12-20T22:44:00.825Z,6.00
2018-12-20T22:46:29.157Z,6.03
2018-12-20T22:48:57.479Z,6.09
2018-12-20T22:51:25.838Z,6.15
2018-12-20T22:53:54.254Z,6.20
2018-12-20T22:56:22.737Z,6.21
2018-12-20T22:58:51.205Z,6.23
2018-12-20T23:01:19.719Z,6.21
2018-12-20T23:03:48.708Z,6.22
2018-12-20T23:06:17.189Z,6.17
2018-12-20T23:08:45.656Z,6.11
2018-12-20T23:11:15.181Z,6.13
2018-12-20T23:13:43.502Z,6.18
2018-12-20T23:16:11.845Z,6.17
2018-12-20T23:18:40.482Z,6.16
2018-12-20T23:21:09.101Z,6.18
2018-12-20T23:23:37.415Z,6.18
2018-12-20T23:26:05.773Z,6.17
2018-12-20T23:28:34.526Z,6.20
2018-12-20T23:31:03.573Z,6.24
2018-12-20T23:33:31.893Z,6.19
2018-12-20T23:36:00.514Z,6.23
2018-12-20T23:38:28.829Z,6.25
2018-12-20T23:40:57.162Z,6.21
2018-12-20T23:43:26.025Z,6.22
2018-12-20T23:45:54.366Z,6.30
2018-12-20T23:48:22.896Z,6.32
2018-12-20T23:50:51.312Z,6.35
2018-12-20T23:53:19.885Z,6.33
2018-12-20T23:55:48.337Z,6.29
2018-12-20T23:58:16.828Z,6.29
